createdAt,value
2022-09-01T00:01:45.078Z,9.20
2022-09-01T00:04:16.125Z,9.00
2022-09-01T00:06:43.772Z,9.13
2022-09-01T00:09:14.015Z,9.33
2022-09-01T00:11:47.923Z,9.20
2022-09-01T00:14:30.068Z,8.87
2022-09-01T00:17:04.607Z,9.70
2022-09-01T00:19:33.425Z,10.07
2022-09-01T00:22:01.644Z,10.23
2022-09-01T00:24:29.022Z,9.53
2022-09-01T00:26:56.803Z,9.83
2022-09-01T00:29:26.011Z,9.47
2022-09-01T00:31:53.354Z,9.33
2022-09-01T00:34:20.551Z,10.37
2022-09-01T00:36:48.179Z,9.97
2022-09-01T00:39:15.652Z,9.60
2022-09-01T00:41:45.001Z,9.47
2022-09-01T00:44:18.995Z,9.70
2022-09-01T00:46:55.357Z,10.50
2022-09-01T00:49:44.982Z,11.00
2022-09-01T00:52:20.707Z,9.67
2022-09-01T00:54:55.895Z,10.27
2022-09-01T00:57:23.138Z,9.67
2022-09-01T00:59:54.634Z,10.03
2022-09-01T01:02:22.195Z,10.40
2022-09-01T01:04:48.961Z,10.93
2022-09-01T01:07:16.949Z,10.83
2022-09-01T01:09:46.031Z,9.60
2022-09-01T01:12:13.797Z,12.40
2022-09-01T01:14:41.742Z,12.50
2022-09-01T01:17:13.244Z,13.77
2022-09-01T01:20:07.459Z,13.80
2022-09-01T01:23:03.782Z,13.50
2022-09-01T01:25:46.502Z,14.83
2022-09-01T01:28:15.897Z,14.73
2022-09-01T01:30:52.224Z,15.53
2022-09-01T01:33:25.227Z,14.27
2022-09-01T01:35:53.846Z,16.93
2022-09-01T01:38:22.943Z,14.20
2022-09-01T01:40:51.849Z,14.77
2022-09-01T01:43:21.859Z,14.47
2022-09-01T01:45:52.109Z,15.40
2022-09-01T01:48:23.935Z,15.10
2022-09-01T01:50:55.026Z,14.00
2022-09-01T01:53:22.654Z,13.90
2022-09-01T01:55:49.861Z,15.47
2022-09-01T01:58:21.987Z,15.90
2022-09-01T02:00:50.603Z,14.60
2022-09-01T02:03:22.006Z,14.93
2022-09-01T02:05:50.588Z,16.17
2022-09-01T02:08:21.924Z,15.63
2022-09-01T02:10:51.514Z,15.23
2022-09-01T02:13:31.197Z,14.77
2022-09-01T02:16:05.043Z,16.30
2022-09-01T02:18:37.714Z,14.77
2022-09-01T02:21:15.173Z,13.17
2022-09-01T02:23:45.275Z,15.63
2022-09-01T02:26:16.969Z,13.33
2022-09-01T02:28:54.431Z,15.27
2022-09-01T02:31:23.135Z,13.67
2022-09-01T02:33:50.467Z,13.73
2022-09-01T02:36:19.408Z,13.00
2022-09-01T02:38:53.219Z,13.57
2022-09-01T02:41:23.088Z,12.97
2022-09-01T02:43:50.706Z,12.77
2022-09-01T02:46:18.886Z,12.87
2022-09-01T02:48:46.199Z,11.37
2022-09-01T02:51:16.623Z,12.80
2022-09-01T02:53:49.782Z,11.70
2022-09-01T02:56:18.170Z,11.63
2022-09-01T02:58:46.400Z,11.77
2022-09-01T03:01:25.002Z,11.63
2022-09-01T03:03:55.639Z,11.93
2022-09-01T03:06:24.164Z,10.80
2022-09-01T03:08:53.506Z,11.10
2022-09-01T03:11:20.543Z,11.77
2022-09-01T03:13:47.481Z,12.50
2022-09-01T03:16:14.420Z,11.37
2022-09-01T03:18:42.824Z,11.50
2022-09-01T03:21:10.303Z,11.20
2022-09-01T03:23:38.072Z,11.80
2022-09-01T03:26:05.092Z,11.80
2022-09-01T03:28:32.041Z,11.27
2022-09-01T03:30:59.367Z,11.77
2022-09-01T03:33:27.804Z,11.73
2022-09-01T03:35:55.366Z,11.47
2022-09-01T03:38:24.484Z,10.83
2022-09-01T03:40:54.741Z,11.50
2022-09-01T03:43:24.970Z,16.63
2022-09-01T03:45:51.875Z,12.87
2022-09-01T03:48:19.428Z,11.50
2022-09-01T03:50:47.259Z,11.73
2022-09-01T03:53:20.543Z,11.27
2022-09-01T03:55:48.776Z,12.33
2022-09-01T03:58:19.129Z,11.67
2022-09-01T04:00:56.499Z,12.53
2022-09-01T04:03:28.788Z,11.43
2022-09-01T04:05:56.228Z,11.67
2022-09-01T04:08:32.539Z,12.17
2022-09-01T04:11:13.984Z,12.20
2022-09-01T04:13:42.118Z,11.53
2022-09-01T04:16:40.959Z,11.00
2022-09-01T04:19:19.814Z,11.47
2022-09-01T04:21:51.765Z,11.20
2022-09-01T04:24:19.103Z,10.87
2022-09-01T04:26:48.807Z,11.53
2022-09-01T04:29:18.814Z,10.20
2022-09-01T04:31:48.736Z,10.17
2022-09-01T04:34:16.263Z,10.63
2022-09-01T04:36:44.895Z,10.10
2022-09-01T04:39:13.306Z,10.23
2022-09-01T04:41:50.748Z,10.63
2022-09-01T04:44:19.291Z,9.83
2022-09-01T04:46:48.342Z,9.27
2022-09-01T04:49:22.009Z,10.07
2022-09-01T04:51:53.649Z,9.80
2022-09-01T04:54:22.834Z,9.83
2022-09-01T04:56:51.415Z,9.87
2022-09-01T04:59:22.041Z,10.67
2022-09-01T05:01:50.637Z,11.00
2022-09-01T05:04:22.835Z,11.73
2022-09-01T05:06:56.035Z,12.17
2022-09-01T05:12:15.871Z,11.87
2022-09-01T05:14:48.898Z,11.53
2022-09-01T05:17:17.736Z,11.13
2022-09-01T05:19:47.866Z,11.60
2022-09-01T05:22:15.806Z,11.33
2022-09-01T05:24:42.777Z,11.50
2022-09-01T05:27:10.631Z,11.80
2022-09-01T05:29:38.617Z,11.77
2022-09-01T05:32:10.169Z,10.90
2022-09-01T05:34:38.947Z,10.80
2022-09-01T05:37:08.680Z,11.07
2022-09-01T05:39:38.213Z,10.50
2022-09-01T05:42:08.225Z,11.80
2022-09-01T05:44:36.381Z,10.60
2022-09-01T05:47:05.514Z,10.50
2022-09-01T05:49:33.316Z,10.77
2022-09-01T05:52:00.550Z,11.23
2022-09-01T05:54:27.975Z,11.27
2022-09-01T05:57:12.785Z,11.30
2022-09-01T05:59:47.149Z,10.47
2022-09-01T06:02:14.274Z,10.37
2022-09-01T06:04:42.166Z,10.47
2022-09-01T06:07:16.358Z,9.57
2022-09-01T06:09:48.620Z,10.77
2022-09-01T06:12:24.081Z,11.13
2022-09-01T06:14:55.944Z,9.97
2022-09-01T06:17:25.682Z,10.90
2022-09-01T06:19:56.048Z,10.20
2022-09-01T06:22:24.451Z,10.60
2022-09-01T06:24:58.091Z,11.07
2022-09-01T06:27:29.525Z,10.50
2022-09-01T06:29:58.266Z,10.80
2022-09-01T06:32:27.249Z,11.30
2022-09-01T06:34:54.593Z,10.20
2022-09-01T06:37:22.493Z,11.50
2022-09-01T06:39:50.090Z,10.33
2022-09-01T06:42:17.575Z,10.47
2022-09-01T06:44:46.006Z,10.97
2022-09-01T06:47:13.063Z,10.20
2022-09-01T06:49:41.090Z,10.63
2022-09-01T06:52:08.666Z,10.70
2022-09-01T06:54:39.273Z,10.70
2022-09-01T06:59:54.153Z,10.50
2022-09-01T07:02:24.528Z,10.93
2022-09-01T07:04:54.187Z,8.97
2022-09-01T07:10:25.406Z,8.80
2022-09-01T07:18:32.556Z,7.80
2022-09-01T07:21:07.660Z,8.30
2022-09-01T07:24:07.967Z,7.63
2022-09-01T07:26:35.960Z,7.87
2022-09-01T07:29:06.351Z,8.37
2022-09-01T07:34:41.658Z,7.83
2022-09-01T07:38:03.391Z,8.30
2022-09-01T07:39:56.402Z,7.03
2022-09-01T07:45:28.784Z,7.80
2022-09-01T07:47:57.139Z,7.20
2022-09-01T07:53:36.079Z,7.67
2022-09-01T07:56:09.546Z,7.70
2022-09-01T07:58:38.758Z,7.83
2022-09-01T08:01:17.372Z,7.83
2022-09-01T08:03:45.474Z,7.97
2022-09-01T08:06:14.820Z,7.43
2022-09-01T08:08:41.970Z,7.50
2022-09-01T08:11:09.100Z,7.20
2022-09-01T08:13:42.012Z,7.73
2022-09-01T08:16:17.997Z,7.47
2022-09-01T08:18:48.545Z,7.90
2022-09-01T08:21:17.465Z,7.80
2022-09-01T08:23:44.401Z,7.53
2022-09-01T08:26:15.926Z,7.53
2022-09-01T08:28:46.188Z,7.40
2022-09-01T08:31:19.184Z,7.53
2022-09-01T08:33:49.151Z,7.47
2022-09-01T08:36:21.552Z,6.47
2022-09-01T08:38:51.406Z,7.27
2022-09-01T08:41:38.393Z,6.87
2022-09-01T08:44:41.018Z,6.60
2022-09-01T08:47:12.902Z,6.40
2022-09-01T08:49:46.997Z,5.80
2022-09-01T08:52:25.641Z,6.53
2022-09-01T08:55:11.455Z,5.87
2022-09-01T08:57:41.154Z,6.37
2022-09-01T09:00:13.608Z,6.60
2022-09-01T09:02:51.499Z,5.50
2022-09-01T09:05:36.759Z,5.70
2022-09-01T09:08:33.436Z,7.87
2022-09-01T09:11:17.956Z,7.70
2022-09-01T09:14:06.392Z,6.23
2022-09-01T09:16:42.636Z,6.83
2022-09-01T09:19:19.544Z,6.43
2022-09-01T09:21:49.142Z,5.87
2022-09-01T09:24:50.269Z,6.70
2022-09-01T09:27:25.251Z,7.10
2022-09-01T09:29:56.606Z,6.57
2022-09-01T09:33:09.673Z,6.40
2022-09-01T09:35:33.233Z,6.30
2022-09-01T09:38:33.243Z,6.93
2022-09-01T09:41:16.338Z,6.60
2022-09-01T09:44:18.555Z,5.87
2022-09-01T09:46:47.649Z,5.60
2022-09-01T09:49:34.852Z,5.97
2022-09-01T09:52:09.985Z,6.23
2022-09-01T09:54:58.498Z,6.00
2022-09-01T09:57:25.428Z,5.53
2022-09-01T10:00:04.102Z,5.73
2022-09-01T10:02:37.828Z,5.70
2022-09-01T10:05:40.784Z,5.30
2022-09-01T10:08:28.403Z,5.00
2022-09-01T10:10:57.650Z,4.93
2022-09-01T10:13:27.491Z,5.13
2022-09-01T10:15:57.229Z,4.90
2022-09-01T10:18:39.681Z,5.40
2022-09-01T10:21:12.150Z,4.60
2022-09-01T10:23:41.427Z,5.07
2022-09-01T10:26:15.874Z,4.73
2022-09-01T10:29:08.396Z,4.23
2022-09-01T10:31:41.036Z,4.60
2022-09-01T10:34:12.506Z,4.73
2022-09-01T10:36:47.016Z,4.90
2022-09-01T10:39:16.047Z,4.27
2022-09-01T10:41:53.219Z,4.53
2022-09-01T10:44:36.231Z,5.23
2022-09-01T10:47:33.484Z,4.53
2022-09-01T10:50:10.140Z,4.60
2022-09-01T10:52:43.420Z,4.63
2022-09-01T10:55:25.022Z,4.50
2022-09-01T11:01:21.731Z,5.07
2022-09-01T11:04:02.698Z,5.03
2022-09-01T11:09:44.716Z,4.30
2022-09-01T11:12:17.321Z,5.10
2022-09-01T11:14:59.882Z,4.80
2022-09-01T11:17:28.879Z,4.50
2022-09-01T11:20:00.647Z,4.33
2022-09-01T11:22:35.221Z,4.63
2022-09-01T11:25:14.196Z,3.70
2022-09-01T11:27:50.078Z,4.20
2022-09-01T11:30:22.822Z,4.20
2022-09-01T11:32:59.493Z,4.63
2022-09-01T11:35:28.886Z,4.70
2022-09-01T11:38:02.025Z,4.53
2022-09-01T11:40:32.747Z,5.43
2022-09-01T11:43:04.458Z,5.20
2022-09-01T11:45:33.935Z,4.77
2022-09-01T11:48:10.974Z,4.90
2022-09-01T11:50:40.878Z,4.90
2022-09-01T11:53:26.723Z,5.20
2022-09-01T11:55:56.948Z,4.93
2022-09-01T11:58:27.747Z,4.10
2022-09-01T12:00:56.480Z,3.83
2022-09-01T12:03:29.846Z,3.87
2022-09-01T12:06:04.024Z,4.07
2022-09-01T12:08:34.018Z,4.43
2022-09-01T12:11:08.428Z,4.27
2022-09-01T12:13:36.306Z,4.03
2022-09-01T12:16:24.616Z,4.27
2022-09-01T12:18:53.383Z,4.90
2022-09-01T12:21:26.991Z,4.30
2022-09-01T12:24:09.590Z,4.00
2022-09-01T12:26:36.519Z,4.43
2022-09-01T12:29:05.472Z,3.80
2022-09-01T12:31:32.874Z,3.73
2022-09-01T12:34:02.389Z,4.17
2022-09-01T12:36:35.159Z,3.67
2022-09-01T12:39:22.972Z,4.13
2022-09-01T12:42:06.755Z,3.63
2022-09-01T12:44:34.746Z,4.07
2022-09-01T12:47:24.596Z,3.70
2022-09-01T12:49:52.397Z,4.33
2022-09-01T12:52:25.996Z,4.00
2022-09-01T12:55:04.342Z,4.03
2022-09-01T12:57:35.498Z,4.00
2022-09-01T13:00:12.042Z,3.60
2022-09-01T13:02:44.789Z,3.80
2022-09-01T13:05:41.545Z,3.40
2022-09-01T13:08:14.702Z,3.67
2022-09-01T13:10:44.880Z,3.70
2022-09-01T13:13:13.181Z,3.53
2022-09-01T13:15:45.347Z,3.83
2022-09-01T13:18:12.155Z,3.70
2022-09-01T13:20:38.897Z,3.73
2022-09-01T13:23:05.735Z,3.73
2022-09-01T13:25:32.487Z,3.50
2022-09-01T13:28:01.477Z,4.20
2022-09-01T13:30:29.928Z,3.77
2022-09-01T13:35:44.358Z,3.70
2022-09-01T13:38:11.828Z,3.50
2022-09-01T13:40:38.616Z,3.00
2022-09-01T13:43:06.135Z,3.20
2022-09-01T13:45:33.750Z,3.23
2022-09-01T13:48:17.046Z,3.40
2022-09-01T13:53:33.179Z,3.20
2022-09-01T13:56:00.024Z,3.33
2022-09-01T13:58:26.806Z,3.20
2022-09-01T14:00:54.230Z,3.30
2022-09-01T14:03:23.715Z,3.20
2022-09-01T14:05:50.916Z,3.10
2022-09-01T14:08:20.973Z,3.13
2022-09-01T14:10:50.915Z,3.17
2022-09-01T14:13:22.755Z,2.83
2022-09-01T14:15:50.519Z,2.87
2022-09-01T14:18:17.959Z,2.70
2022-09-01T14:20:48.111Z,2.90
2022-09-01T14:23:15.687Z,6.53
2022-09-01T14:25:45.929Z,3.03
2022-09-01T14:28:13.514Z,3.20
2022-09-01T14:30:43.868Z,2.60
2022-09-01T14:33:11.331Z,2.70
2022-09-01T14:35:40.934Z,3.20
2022-09-01T14:38:08.801Z,2.80
2022-09-01T14:40:38.946Z,2.70
2022-09-01T14:43:09.844Z,2.97
2022-09-01T14:45:39.438Z,2.55
2022-09-01T14:48:09.084Z,2.70
2022-09-01T14:50:41.386Z,2.50
2022-09-01T14:53:09.171Z,2.80
2022-09-01T14:55:35.987Z,2.60
2022-09-01T14:58:03.883Z,2.60
2022-09-01T15:00:31.784Z,2.60
2022-09-01T15:02:58.606Z,2.60
2022-09-01T15:05:25.727Z,2.80
2022-09-01T15:07:53.852Z,2.73
2022-09-01T15:10:24.840Z,2.40
2022-09-01T15:12:53.878Z,3.20
2022-09-01T15:15:21.810Z,2.40
2022-09-01T15:17:48.610Z,2.67
2022-09-01T15:20:33.781Z,2.60
2022-09-01T15:23:01.827Z,2.70
2022-09-01T15:25:28.763Z,2.70
2022-09-01T15:27:55.550Z,2.80
2022-09-01T15:30:22.478Z,2.50
2022-09-01T15:32:51.912Z,2.70
2022-09-01T15:35:19.556Z,2.63
2022-09-01T15:37:48.496Z,2.43
2022-09-01T15:40:16.047Z,2.60
2022-09-01T15:42:42.873Z,2.57
2022-09-01T15:45:13.530Z,2.60
2022-09-01T15:47:44.929Z,2.40
2022-09-01T15:50:21.124Z,2.50
2022-09-01T15:52:56.635Z,2.50
2022-09-01T15:55:44.518Z,2.57
2022-09-01T15:58:13.513Z,2.30
2022-09-01T16:00:41.498Z,2.83
2022-09-01T16:03:09.207Z,2.60
2022-09-01T16:05:38.011Z,2.47
2022-09-01T16:08:08.327Z,2.57
2022-09-01T16:10:37.299Z,2.57
2022-09-01T16:13:04.489Z,2.40
2022-09-01T16:15:31.513Z,2.47
2022-09-01T16:18:28.351Z,2.40
2022-09-01T16:21:03.719Z,2.60
2022-09-01T16:23:42.052Z,2.33
2022-09-01T16:26:08.802Z,2.50
2022-09-01T16:28:37.082Z,2.90
2022-09-01T16:31:17.847Z,2.50
2022-09-01T16:33:55.907Z,2.13
2022-09-01T16:36:48.058Z,2.37
2022-09-01T16:39:49.520Z,2.37
2022-09-01T16:42:57.769Z,2.50
2022-09-01T16:45:43.096Z,2.50
2022-09-01T16:48:32.906Z,2.47
2022-09-01T16:51:24.851Z,2.30
2022-09-01T16:54:03.547Z,2.13
2022-09-01T16:56:42.879Z,2.40
2022-09-01T16:59:55.584Z,2.40
2022-09-01T17:02:53.139Z,3.10
2022-09-01T17:05:32.378Z,2.57
2022-09-01T17:08:38.760Z,2.97
2022-09-01T17:11:20.780Z,2.93
2022-09-01T17:13:52.077Z,2.73
2022-09-01T17:16:38.079Z,2.80
2022-09-01T17:19:08.590Z,2.40
2022-09-01T17:21:43.072Z,2.93
2022-09-01T17:24:25.935Z,2.93
2022-09-01T17:26:55.707Z,2.50
2022-09-01T17:29:34.207Z,2.60
2022-09-01T17:32:10.770Z,2.63
2022-09-01T17:35:04.210Z,2.50
2022-09-01T17:37:39.941Z,5.30
2022-09-01T17:40:26.288Z,3.43
2022-09-01T17:43:12.790Z,2.80
2022-09-01T17:46:07.967Z,2.97
2022-09-01T17:48:56.942Z,2.70
2022-09-01T17:52:06.099Z,2.50
2022-09-01T17:54:38.406Z,2.70
2022-09-01T17:57:09.275Z,2.40
2022-09-01T18:00:02.942Z,2.70
2022-09-01T18:02:35.746Z,2.67
2022-09-01T18:05:07.994Z,2.50
2022-09-01T18:07:52.256Z,2.70
2022-09-01T18:10:28.949Z,2.80
2022-09-01T18:13:05.118Z,2.80
2022-09-01T18:15:55.296Z,2.97
2022-09-01T18:18:41.170Z,2.43
2022-09-01T18:21:38.135Z,2.40
2022-09-01T18:24:54.490Z,2.53
2022-09-01T18:27:24.261Z,2.70
2022-09-01T18:29:52.704Z,2.60
2022-09-01T18:32:51.387Z,2.80
2022-09-01T18:35:38.059Z,2.70
2022-09-01T18:38:13.565Z,2.97
2022-09-01T18:41:07.276Z,2.97
2022-09-01T18:43:51.325Z,2.67
2022-09-01T18:46:49.533Z,2.60
2022-09-01T18:49:49.351Z,3.13
2022-09-01T18:52:55.111Z,3.27
2022-09-01T18:55:46.872Z,4.47
2022-09-01T18:58:52.064Z,3.67
2022-09-01T19:01:33.055Z,2.80
2022-09-01T19:04:12.774Z,3.10
2022-09-01T19:07:00.124Z,2.80
2022-09-01T19:09:46.795Z,2.87
2022-09-01T19:12:26.629Z,2.70
2022-09-01T19:15:28.943Z,3.10
2022-09-01T19:18:22.908Z,2.50
2022-09-01T19:21:05.737Z,2.90
2022-09-01T19:23:43.320Z,2.70
2022-09-01T19:26:16.816Z,2.70
2022-09-01T19:28:55.504Z,2.87
2022-09-01T19:31:34.407Z,2.80
2022-09-01T19:34:08.481Z,2.90
2022-09-01T19:36:46.852Z,2.40
2022-09-01T19:39:17.940Z,2.87
2022-09-01T19:42:02.185Z,2.70
2022-09-01T19:44:49.115Z,2.77
2022-09-01T19:47:26.019Z,3.00
2022-09-01T19:50:06.107Z,2.70
2022-09-01T19:52:43.984Z,2.70
2022-09-01T19:55:45.774Z,2.83
2022-09-01T19:58:21.051Z,2.70
2022-09-01T20:00:53.461Z,2.73
2022-09-01T20:03:32.632Z,2.70
2022-09-01T20:06:31.888Z,3.03
2022-09-01T20:09:05.879Z,2.60
2022-09-01T20:11:39.675Z,2.90
2022-09-01T20:14:40.027Z,2.53
2022-09-01T20:17:11.767Z,2.83
2022-09-01T20:19:44.750Z,2.80
2022-09-01T20:22:24.442Z,2.40
2022-09-01T20:25:08.433Z,2.20
2022-09-01T20:27:47.921Z,2.80
2022-09-01T20:30:36.975Z,2.50
2022-09-01T20:33:22.972Z,2.63
2022-09-01T20:36:16.990Z,2.20
2022-09-01T20:39:23.748Z,2.70
2022-09-01T20:41:59.608Z,2.70
2022-09-01T20:44:45.087Z,2.60
2022-09-01T20:47:12.560Z,2.40
2022-09-01T20:49:39.907Z,2.63
2022-09-01T20:52:29.039Z,2.43
2022-09-01T20:55:01.799Z,2.57
2022-09-01T20:57:54.882Z,2.60
2022-09-01T21:00:25.927Z,2.43
2022-09-01T21:03:33.667Z,2.47
2022-09-01T21:06:10.572Z,2.37
2022-09-01T21:08:49.144Z,2.40
2022-09-01T21:11:37.990Z,2.93
2022-09-01T21:14:36.915Z,2.60
2022-09-01T21:17:26.524Z,2.40
2022-09-01T21:20:02.677Z,2.40
2022-09-01T21:22:29.933Z,2.37
2022-09-01T21:24:57.019Z,2.60
2022-09-01T21:27:27.267Z,2.50
2022-09-01T21:30:11.023Z,2.53
2022-09-01T21:32:39.733Z,2.57
2022-09-01T21:35:09.513Z,2.60
2022-09-01T21:37:36.753Z,2.20
2022-09-01T21:40:04.354Z,2.73
2022-09-01T21:42:38.116Z,2.47
2022-09-01T21:45:06.939Z,2.40
2022-09-01T21:47:34.480Z,2.33
2022-09-01T21:50:01.359Z,2.23
2022-09-01T21:52:28.499Z,2.37
2022-09-01T21:54:55.268Z,2.53
2022-09-01T21:57:23.128Z,2.90
2022-09-01T21:59:51.624Z,2.50
2022-09-01T22:02:20.119Z,2.90
2022-09-01T22:04:48.914Z,2.27
2022-09-01T22:07:17.055Z,2.70
2022-09-01T22:09:44.348Z,2.60
2022-09-01T22:12:11.482Z,2.60
2022-09-01T22:14:38.816Z,2.60
2022-09-01T22:17:05.978Z,2.43
2022-09-01T22:19:34.888Z,2.33
2022-09-01T22:22:03.129Z,2.70
2022-09-01T22:24:30.131Z,2.40
2022-09-01T22:26:57.066Z,2.57
2022-09-01T22:29:25.187Z,2.30
2022-09-01T22:31:52.092Z,2.27
2022-09-01T22:34:19.057Z,2.60
2022-09-01T22:36:49.108Z,2.20
2022-09-01T22:39:18.020Z,2.80
2022-09-01T22:41:45.453Z,2.50
2022-09-01T22:44:12.698Z,2.40
2022-09-01T22:46:40.431Z,2.50
2022-09-01T22:49:07.920Z,2.73
2022-09-01T22:51:37.246Z,2.40
2022-09-01T22:54:04.750Z,2.47
2022-09-01T22:56:34.345Z,2.20
2022-09-01T22:59:05.222Z,2.30
2022-09-01T23:01:36.517Z,2.13
2022-09-01T23:04:06.444Z,2.77
2022-09-01T23:06:35.153Z,2.30
2022-09-01T23:09:03.339Z,2.50
2022-09-01T23:11:30.524Z,2.33
2022-09-01T23:13:58.166Z,2.53
2022-09-01T23:16:26.286Z,2.57
2022-09-01T23:18:54.279Z,2.27
